Flight Track Log - Related Links

Times and Time Zones

All times are in EDT time to prevent confusion due to time zone crossing. See the DAL1082 flight status page for this flight to view local times or setup timezone preferences in your user account.

Time Position Orientation Groundspeed Altitude Reporting Facility
EDT Latitude Longitude Course Direction KTS MPH feet Rate Location/Type
Thu 02:24:17 PM 33.5725 -86.7439 90° East 168 193 1,600  Level Atlanta Center
Thu 02:24:54 PM 33.5900 -86.7072 60° Northeast 190 219 2,700 1,800 Climbing Atlanta Center
Thu 02:25:17 PM 33.5889 -86.6647 92° East 237 273 3,400 2,200 Climbing Atlanta Center
Thu 02:25:54 PM 33.5517 -86.6486 160° South 278 320 4,900 2,600 Climbing Atlanta Center
Thu 02:26:17 PM 33.5206 -86.6353 160° South 280 322 6,000 3,108 Climbing Atlanta Center
Thu 02:27:00 PM 33.5763 -86.4385 140° Southeast  Level Estimated
Thu 02:27:17 PM 33.4525 -86.6008 157° South 290 334 9,200  Level Atlanta Center
Thu 02:28:00 PM 33.5802 -86.3338 90° East  Level Estimated
Thu 02:28:17 PM 33.3783 -86.5464 148° Southeast 290 334 11,300  Level Atlanta Center
Thu 02:29:00 PM 33.5841 -86.2292 90° East  Level Estimated
Thu 02:29:17 PM 33.3108 -86.4822 142° Southeast 350 403 12,500  Level Atlanta Center
Thu 02:30:17 PM 33.2569 -86.3492 116° Southeast 371 427 14,900 2,300 Climbing Atlanta Center
Thu 02:31:17 PM 33.2514 -86.2000 93° East 383 441 17,100 2,150 Climbing Atlanta Center
Thu 02:32:17 PM 33.2436 -86.0506 94° East 424 488 19,200 2,050 Climbing Atlanta Center
Thu 02:33:17 PM 33.2375 -85.8992 93° East 442 509 21,200 1,750 Climbing Atlanta Center
Thu 02:34:17 PM 33.2272 -85.7425 94° East 455 524 22,700 900 Climbing Atlanta Center
Thu 02:35:17 PM 33.2189 -85.5808 93° East 478 550 23,000 -400 Climbing Atlanta Center
Thu 02:36:17 PM 33.2103 -85.4267 94° East 478 550 21,900 -2,250 Descending Atlanta Center
Thu 02:37:17 PM 33.1994 -85.2800 95° East 455 524 18,500 -3,400 Descending Atlanta Center
Thu 02:38:17 PM 33.1925 -85.1411 93° East 439 505 15,100 -2,250 Descending Atlanta Center
Thu 02:39:17 PM 33.2061 -85.0069 83° East 395 455 14,000 -1,500 Descending Atlanta Center
Thu 02:40:17 PM 33.2797 -84.9086 48° Northeast 389 448 12,100 -1,000 Descending Atlanta Center
Thu 02:41:17 PM 33.3494 -84.8122 49° Northeast 383 441 12,000 -50 Descending Atlanta Center
Thu 02:42:17 PM 33.4333 -84.7108 45° Northeast 383 441 12,000  Level Atlanta Center
Thu 02:43:17 PM 33.5069 -84.6242 44° Northeast 378 435 12,000 -150 Level Atlanta Center
Thu 02:44:17 PM 33.5408 -84.5322 66° East 320 368 11,700 -900 Descending Atlanta Center
Thu 02:45:17 PM 33.5369 -84.4450 93° East 276 318 10,200 -1,900 Descending Atlanta Center
Thu 02:46:17 PM 33.5333 -84.3500 93° East 247 284 7,900 -1,867 Descending Atlanta TRACON
Thu 02:48:17 PM 33.5833 -84.2333 63° Northeast 215 247 4,600 -1,533 Descending Atlanta TRACON
Thu 02:49:17 PM 33.6167 -84.2833 309° West 199 229 3,300 -1,150 Descending Atlanta TRACON
Thu 02:50:17 PM 33.6167 -84.3333 270° West 170 196 2,300 -900 Descending Atlanta TRACON
Thu 02:51:17 PM 33.6167 -84.3833 270° West 140 161 1,500 -800 Descending Atlanta TRACON

Login

Don't have an account? Register now (free) for customized features, flight alerts, and more!